sensor_id;sensor_type;location;lat;lon;timestamp;pressure;altitude;pressure_sealevel;temperature;humidity
25855;BME280;13680;49.936;11.344;2024-01-30T00:00:52;98141.41;;;0.10;76.70
25855;BME280;13680;49.936;11.344;2024-01-30T00:03:18;98141.00;;;0.07;76.19
25855;BME280;13680;49.936;11.344;2024-01-30T00:05:43;98138.53;;;0.05;76.47
25855;BME280;13680;49.936;11.344;2024-01-30T00:08:09;98147.47;;;0.04;76.60
25855;BME280;13680;49.936;11.344;2024-01-30T00:10:34;98141.38;;;0.04;76.84
25855;BME280;13680;49.936;11.344;2024-01-30T00:12:59;98142.19;;;0.04;76.52
25855;BME280;13680;49.936;11.344;2024-01-30T00:15:24;98144.44;;;0.07;76.08
25855;BME280;13680;49.936;11.344;2024-01-30T00:17:50;98146.66;;;0.04;76.30
25855;BME280;13680;49.936;11.344;2024-01-30T00:20:17;98146.84;;;0.02;76.38
25855;BME280;13680;49.936;11.344;2024-01-30T00:22:43;98139.31;;;-0.01;76.21
25855;BME280;13680;49.936;11.344;2024-01-30T00:25:08;98140.34;;;-0.02;76.82
25855;BME280;13680;49.936;11.344;2024-01-30T00:27:33;98142.34;;;-0.04;77.06
25855;BME280;13680;49.936;11.344;2024-01-30T00:29:59;98152.31;;;-0.06;76.65
25855;BME280;13680;49.936;11.344;2024-01-30T00:32:24;98140.47;;;-0.10;76.57
25855;BME280;13680;49.936;11.344;2024-01-30T00:34:49;98137.25;;;-0.12;76.99
25855;BME280;13680;49.936;11.344;2024-01-30T00:37:15;98139.47;;;-0.09;76.75
25855;BME280;13680;49.936;11.344;2024-01-30T00:39:40;98144.16;;;-0.11;76.56
25855;BME280;13680;49.936;11.344;2024-01-30T00:42:06;98135.56;;;-0.20;77.02
25855;BME280;13680;49.936;11.344;2024-01-30T00:44:31;98132.72;;;-0.19;77.57
25855;BME280;13680;49.936;11.344;2024-01-30T00:46:56;98132.09;;;-0.21;77.48
25855;BME280;13680;49.936;11.344;2024-01-30T00:49:21;98128.69;;;-0.14;77.31
25855;BME280;13680;49.936;11.344;2024-01-30T00:51:47;98145.16;;;-0.19;77.06
25855;BME280;13680;49.936;11.344;2024-01-30T00:54:12;98128.06;;;-0.17;77.37
25855;BME280;13680;49.936;11.344;2024-01-30T00:56:37;98128.00;;;-0.23;77.54
25855;BME280;13680;49.936;11.344;2024-01-30T00:59:03;98132.28;;;-0.29;77.75
25855;BME280;13680;49.936;11.344;2024-01-30T01:01:28;98127.84;;;-0.22;77.60
25855;BME280;13680;49.936;11.344;2024-01-30T01:03:54;98135.34;;;-0.25;77.80
25855;BME280;13680;49.936;11.344;2024-01-30T01:06:19;98134.50;;;-0.26;77.25
25855;BME280;13680;49.936;11.344;2024-01-30T01:08:44;98129.22;;;-0.26;77.79
25855;BME280;13680;49.936;11.344;2024-01-30T01:11:10;98130.88;;;-0.25;77.71
25855;BME280;13680;49.936;11.344;2024-01-30T01:13:35;98125.56;;;-0.25;77.38
25855;BME280;13680;49.936;11.344;2024-01-30T01:16:00;98129.44;;;-0.21;77.61
25855;BME280;13680;49.936;11.344;2024-01-30T01:18:26;98133.13;;;-0.22;77.66
25855;BME280;13680;49.936;11.344;2024-01-30T01:20:52;98123.34;;;-0.28;77.41
25855;BME280;13680;49.936;11.344;2024-01-30T01:23:17;98130.63;;;-0.30;78.04
25855;BME280;13680;49.936;11.344;2024-01-30T01:25:42;98127.22;;;-0.24;77.86
25855;BME280;13680;49.936;11.344;2024-01-30T01:28:08;98125.75;;;-0.33;78.10
25855;BME280;13680;49.936;11.344;2024-01-30T01:30:33;98128.97;;;-0.38;78.25
25855;BME280;13680;49.936;11.344;2024-01-30T01:32:59;98124.47;;;-0.37;77.94
25855;BME280;13680;49.936;11.344;2024-01-30T01:35:27;98128.16;;;-0.38;78.28
25855;BME280;13680;49.936;11.344;2024-01-30T01:37:53;98130.41;;;-0.35;78.20
25855;BME280;13680;49.936;11.344;2024-01-30T01:40:23;98129.59;;;-0.36;78.50
25855;BME280;13680;49.936;11.344;2024-01-30T01:42:50;98125.56;;;-0.31;78.01
25855;BME280;13680;49.936;11.344;2024-01-30T01:45:17;98136.50;;;-0.35;78.22
25855;BME280;13680;49.936;11.344;2024-01-30T01:47:42;98128.97;;;-0.38;78.27
25855;BME280;13680;49.936;11.344;2024-01-30T01:50:11;98124.88;;;-0.40;78.35
25855;BME280;13680;49.936;11.344;2024-01-30T01:52:37;98124.91;;;-0.34;77.79
25855;BME280;13680;49.936;11.344;2024-01-30T01:55:03;98120.84;;;-0.36;77.72
25855;BME280;13680;49.936;11.344;2024-01-30T01:57:28;98112.91;;;-0.36;78.22
25855;BME280;13680;49.936;11.344;2024-01-30T01:59:53;98118.78;;;-0.41;78.27
25855;BME280;13680;49.936;11.344;2024-01-30T02:02:19;98114.50;;;-0.42;78.41
25855;BME280;13680;49.936;11.344;2024-01-30T02:04:45;98108.78;;;-0.45;78.46
25855;BME280;13680;49.936;11.344;2024-01-30T02:07:11;98101.50;;;-0.43;78.37
25855;BME280;13680;49.936;11.344;2024-01-30T02:09:36;98100.06;;;-0.46;78.31
25855;BME280;13680;49.936;11.344;2024-01-30T02:12:01;98099.44;;;-0.48;77.85
25855;BME280;13680;49.936;11.344;2024-01-30T02:14:27;98095.56;;;-0.52;78.26
25855;BME280;13680;49.936;11.344;2024-01-30T02:16:52;98098.00;;;-0.51;78.26
25855;BME280;13680;49.936;11.344;2024-01-30T02:19:17;98092.91;;;-0.52;78.45
25855;BME280;13680;49.936;11.344;2024-01-30T02:21:44;98094.94;;;-0.47;78.40
25855;BME280;13680;49.936;11.344;2024-01-30T02:24:10;98091.28;;;-0.53;79.13
25855;BME280;13680;49.936;11.344;2024-01-30T02:26:35;98085.22;;;-0.47;78.71
25855;BME280;13680;49.936;11.344;2024-01-30T02:29:00;98084.22;;;-0.46;78.65
25855;BME280;13680;49.936;11.344;2024-01-30T02:31:26;98077.22;;;-0.54;79.19
25855;BME280;13680;49.936;11.344;2024-01-30T02:33:51;98073.44;;;-0.44;78.91
25855;BME280;13680;49.936;11.344;2024-01-30T02:36:16;98073.22;;;-0.50;79.06
25855;BME280;13680;49.936;11.344;2024-01-30T02:38:42;98074.22;;;-0.51;78.83
25855;BME280;13680;49.936;11.344;2024-01-30T02:41:07;98066.66;;;-0.54;78.82
25855;BME280;13680;49.936;11.344;2024-01-30T02:43:32;98064.19;;;-0.62;79.21
25855;BME280;13680;49.936;11.344;2024-01-30T02:45:58;98067.88;;;-0.56;79.23
25855;BME280;13680;49.936;11.344;2024-01-30T02:48:24;98068.66;;;-0.62;79.26
25855;BME280;13680;49.936;11.344;2024-01-30T02:50:50;98051.63;;;-0.60;79.41
25855;BME280;13680;49.936;11.344;2024-01-30T02:53:15;98066.66;;;-0.54;78.89
25855;BME280;13680;49.936;11.344;2024-01-30T02:55:40;98057.91;;;-0.61;79.54
25855;BME280;13680;49.936;11.344;2024-01-30T02:58:06;98054.06;;;-0.58;79.69
25855;BME280;13680;49.936;11.344;2024-01-30T03:00:32;98047.38;;;-0.54;79.37
25855;BME280;13680;49.936;11.344;2024-01-30T03:02:57;98054.72;;;-0.50;79.26
25855;BME280;13680;49.936;11.344;2024-01-30T03:05:22;98054.06;;;-0.58;79.22
25855;BME280;13680;49.936;11.344;2024-01-30T03:07:48;98055.50;;;-0.56;79.13
25855;BME280;13680;49.936;11.344;2024-01-30T03:10:13;98052.44;;;-0.53;78.79
25855;BME280;13680;49.936;11.344;2024-01-30T03:12:38;98055.50;;;-0.56;78.87
25855;BME280;13680;49.936;11.344;2024-01-30T03:15:04;98047.53;;;-0.62;78.69
25855;BME280;13680;49.936;11.344;2024-01-30T03:17:29;98048.34;;;-0.62;79.14
25855;BME280;13680;49.936;11.344;2024-01-30T03:19:54;98046.72;;;-0.63;78.75
25855;BME280;13680;49.936;11.344;2024-01-30T03:22:20;98052.38;;;-0.66;78.78
25855;BME280;13680;49.936;11.344;2024-01-30T03:24:45;98051.19;;;-0.63;79.07
25855;BME280;13680;49.936;11.344;2024-01-30T03:27:10;98053.63;;;-0.62;78.91
25855;BME280;13680;49.936;11.344;2024-01-30T03:29:36;98052.38;;;-0.66;78.75
25855;BME280;13680;49.936;11.344;2024-01-30T03:32:01;98046.25;;;-0.73;79.50
25855;BME280;13680;49.936;11.344;2024-01-30T03:34:28;98055.59;;;-0.71;79.00
25855;BME280;13680;49.936;11.344;2024-01-30T03:36:54;98047.25;;;-0.74;78.94
25855;BME280;13680;49.936;11.344;2024-01-30T03:39:19;98052.38;;;-0.66;78.67
25855;BME280;13680;49.936;11.344;2024-01-30T03:41:44;98054.41;;;-0.68;78.41
25855;BME280;13680;49.936;11.344;2024-01-30T03:44:10;98066.75;;;-0.75;78.76
25855;BME280;13680;49.936;11.344;2024-01-30T03:46:36;98054.38;;;-0.75;78.60
25855;BME280;13680;49.936;11.344;2024-01-30T03:49:01;98053.94;;;-0.78;78.80
25855;BME280;13680;49.936;11.344;2024-01-30T03:51:26;98062.50;;;-0.76;78.75
25855;BME280;13680;49.936;11.344;2024-01-30T03:53:52;98056.97;;;-0.81;78.38
25855;BME280;13680;49.936;11.344;2024-01-30T03:56:17;98062.25;;;-0.81;78.56
25855;BME280;13680;49.936;11.344;2024-01-30T03:58:42;98060.66;;;-0.76;78.73
25855;BME280;13680;49.936;11.344;2024-01-30T04:01:07;98066.75;;;-0.75;78.83
25855;BME280;13680;49.936;11.344;2024-01-30T04:03:37;98062.44;;;-0.83;78.67
25855;BME280;13680;49.936;11.344;2024-01-30T04:06:03;98062.44;;;-0.83;78.74
25855;BME280;13680;49.936;11.344;2024-01-30T04:08:28;98064.69;;;-0.80;78.51
25855;BME280;13680;49.936;11.344;2024-01-30T04:10:54;98072.00;;;-0.82;78.35
25855;BME280;13680;49.936;11.344;2024-01-30T04:13:19;98057.16;;;-0.83;78.43
25855;BME280;13680;49.936;11.344;2024-01-30T04:15:45;98060.84;;;-0.77;78.89
25855;BME280;13680;49.936;11.344;2024-01-30T04:18:10;98072.19;;;-0.84;78.73
25855;BME280;13680;49.936;11.344;2024-01-30T04:20:35;98076.66;;;-0.84;78.55
25855;BME280;13680;49.936;11.344;2024-01-30T04:23:01;98072.41;;;-0.78;78.84
25855;BME280;13680;49.936;11.344;2024-01-30T04:25:26;98074.81;;;-0.84;78.79
25855;BME280;13680;49.936;11.344;2024-01-30T04:27:51;98076.22;;;-0.88;78.55
25855;BME280;13680;49.936;11.344;2024-01-30T04:30:17;98079.88;;;-0.89;78.43
25855;BME280;13680;49.936;11.344;2024-01-30T04:32:43;98077.44;;;-0.90;78.77
25855;BME280;13680;49.936;11.344;2024-01-30T04:35:09;98071.56;;;-0.86;78.77
25855;BME280;13680;49.936;11.344;2024-01-30T04:37:34;98082.94;;;-0.85;78.66
25855;BME280;13680;49.936;11.344;2024-01-30T04:39:59;98079.88;;;-0.89;78.79
25855;BME280;13680;49.936;11.344;2024-01-30T04:42:24;98076.56;;;-0.97;79.84
25855;BME280;13680;49.936;11.344;2024-01-30T04:44:50;98075.22;;;-0.87;79.26
25855;BME280;13680;49.936;11.344;2024-01-30T04:47:16;98085.56;;;-0.92;78.80
25855;BME280;13680;49.936;11.344;2024-01-30T04:49:41;98078.63;;;-0.93;78.95
25855;BME280;13680;49.936;11.344;2024-01-30T04:52:07;98086.13;;;-0.96;78.62
25855;BME280;13680;49.936;11.344;2024-01-30T04:54:34;98084.47;;;-0.97;78.30
25855;BME280;13680;49.936;11.344;2024-01-30T04:57:00;98088.56;;;-0.95;78.46
25855;BME280;13680;49.936;11.344;2024-01-30T04:59:25;98079.00;;;-0.96;78.81
25855;BME280;13680;49.936;11.344;2024-01-30T05:01:50;98076.75;;;-0.99;78.62
25855;BME280;13680;49.936;11.344;2024-01-30T05:04:16;98081.63;;;-0.96;78.61
25855;BME280;13680;49.936;11.344;2024-01-30T05:06:41;98077.38;;;-0.97;78.76
25855;BME280;13680;49.936;11.344;2024-01-30T05:09:07;98089.19;;;-0.93;78.28
25855;BME280;13680;49.936;11.344;2024-01-30T05:11:37;98087.50;;;-1.01;78.56
25855;BME280;13680;49.936;11.344;2024-01-30T05:14:03;98084.88;;;-1.01;78.45
25855;BME280;13680;49.936;11.344;2024-01-30T05:16:28;98078.16;;;-1.03;78.77
25855;BME280;13680;49.936;11.344;2024-01-30T05:18:54;98085.13;;;-0.95;78.50
25855;BME280;13680;49.936;11.344;2024-01-30T05:21:19;98087.16;;;-0.91;78.06
25855;BME280;13680;49.936;11.344;2024-01-30T05:23:44;98088.78;;;-0.90;78.31
25855;BME280;13680;49.936;11.344;2024-01-30T05:26:10;98083.28;;;-0.95;78.65
25855;BME280;13680;49.936;11.344;2024-01-30T05:28:35;98085.56;;;-0.92;78.82
25855;BME280;13680;49.936;11.344;2024-01-30T05:31:01;98089.66;;;-0.83;78.57
25855;BME280;13680;49.936;11.344;2024-01-30T05:33:26;98092.06;;;-0.88;78.63
25855;BME280;13680;49.936;11.344;2024-01-30T05:35:52;98090.47;;;-0.82;79.00
25855;BME280;13680;49.936;11.344;2024-01-30T05:38:19;98092.56;;;-0.77;78.38
25855;BME280;13680;49.936;11.344;2024-01-30T05:40:45;98089.50;;;-0.74;79.00
25855;BME280;13680;49.936;11.344;2024-01-30T05:43:11;98086.44;;;-0.78;79.03
25855;BME280;13680;49.936;11.344;2024-01-30T05:45:36;98084.00;;;-0.79;79.50
25855;BME280;13680;49.936;11.344;2024-01-30T05:48:01;98083.00;;;-0.78;79.78
25855;BME280;13680;49.936;11.344;2024-01-30T05:50:26;98095.63;;;-0.74;79.82
25855;BME280;13680;49.936;11.344;2024-01-30T05:52:52;98096.19;;;-0.78;79.73
25855;BME280;13680;49.936;11.344;2024-01-30T05:55:17;98097.88;;;-0.71;80.23
25855;BME280;13680;49.936;11.344;2024-01-30T05:57:43;98081.25;;;-0.64;79.79
25855;BME280;13680;49.936;11.344;2024-01-30T06:00:08;98085.97;;;-0.60;80.09
25855;BME280;13680;49.936;11.344;2024-01-30T06:02:34;98089.00;;;-0.56;80.05
25855;BME280;13680;49.936;11.344;2024-01-30T06:04:59;98086.19;;;-0.55;80.13
25855;BME280;13680;49.936;11.344;2024-01-30T06:07:24;98090.66;;;-0.48;79.98
25855;BME280;13680;49.936;11.344;2024-01-30T06:09:50;98088.47;;;-0.45;79.58
25855;BME280;13680;49.936;11.344;2024-01-30T06:12:15;98096.38;;;-0.45;79.78
25855;BME280;13680;49.936;11.344;2024-01-30T06:14:40;98091.75;;;-0.43;80.01
25855;BME280;13680;49.936;11.344;2024-01-30T06:17:08;98096.81;;;-0.41;79.81
25855;BME280;13680;49.936;11.344;2024-01-30T06:19:33;98094.41;;;-0.36;79.76
25855;BME280;13680;49.936;11.344;2024-01-30T06:21:58;98104.19;;;-0.37;79.48
25855;BME280;13680;49.936;11.344;2024-01-30T06:24:24;98103.75;;;-0.40;79.80
25855;BME280;13680;49.936;11.344;2024-01-30T06:26:49;98101.53;;;-0.37;79.76
25855;BME280;13680;49.936;11.344;2024-01-30T06:29:14;98098.28;;;-0.32;80.27
25855;BME280;13680;49.936;11.344;2024-01-30T06:31:41;98098.28;;;-0.32;79.50
25855;BME280;13680;49.936;11.344;2024-01-30T06:34:07;98101.56;;;-0.30;79.69
25855;BME280;13680;49.936;11.344;2024-01-30T06:36:33;98101.16;;;-0.27;80.05
25855;BME280;13680;49.936;11.344;2024-01-30T06:38:58;98103.41;;;-0.24;79.52
25855;BME280;13680;49.936;11.344;2024-01-30T06:41:23;98105.63;;;-0.27;79.73
25855;BME280;13680;49.936;11.344;2024-01-30T06:43:49;98103.41;;;-0.30;79.63
25855;BME280;13680;49.936;11.344;2024-01-30T06:46:15;98096.69;;;-0.26;79.35
25855;BME280;13680;49.936;11.344;2024-01-30T06:48:40;98099.38;;;-0.20;79.26
25855;BME280;13680;49.936;11.344;2024-01-30T06:51:06;98105.28;;;-0.18;79.62
25855;BME280;13680;49.936;11.344;2024-01-30T06:53:31;98103.88;;;-0.13;79.48
25855;BME280;13680;49.936;11.344;2024-01-30T06:55:57;98100.44;;;-0.14;79.47
25855;BME280;13680;49.936;11.344;2024-01-30T06:58:22;98098.00;;;-0.09;79.43
25855;BME280;13680;49.936;11.344;2024-01-30T07:00:48;98093.47;;;-0.22;79.60
25855;BME280;13680;49.936;11.344;2024-01-30T07:03:13;98097.16;;;-0.09;80.20
25855;BME280;13680;49.936;11.344;2024-01-30T07:05:38;98100.88;;;-0.04;80.19
25855;BME280;13680;49.936;11.344;2024-01-30T07:08:04;98109.25;;;0.07;80.04
25855;BME280;13680;49.936;11.344;2024-01-30T07:10:29;98105.38;;;0.09;79.85
25855;BME280;13680;49.936;11.344;2024-01-30T07:12:56;98110.91;;;0.14;80.03
25855;BME280;13680;49.936;11.344;2024-01-30T07:15:22;98100.91;;;0.16;79.59
25855;BME280;13680;49.936;11.344;2024-01-30T07:17:47;98105.63;;;0.21;79.54
25855;BME280;13680;49.936;11.344;2024-01-30T07:20:12;98110.53;;;0.31;79.08
25855;BME280;13680;49.936;11.344;2024-01-30T07:22:38;98117.28;;;0.34;79.62
25855;BME280;13680;49.936;11.344;2024-01-30T07:25:03;98116.06;;;0.36;79.54
25855;BME280;13680;49.936;11.344;2024-01-30T07:27:29;98120.56;;;0.42;79.38
25855;BME280;13680;49.936;11.344;2024-01-30T07:29:54;98118.72;;;0.49;79.60
25855;BME280;13680;49.936;11.344;2024-01-30T07:32:19;98125.25;;;0.54;79.23
25855;BME280;13680;49.936;11.344;2024-01-30T07:34:45;98120.78;;;0.61;79.04
25855;BME280;13680;49.936;11.344;2024-01-30T07:37:10;98121.41;;;0.70;79.50
25855;BME280;13680;49.936;11.344;2024-01-30T07:39:36;98118.53;;;0.64;79.00
25855;BME280;13680;49.936;11.344;2024-01-30T07:42:02;98120.41;;;0.77;78.95
25855;BME280;13680;49.936;11.344;2024-01-30T07:44:27;98127.31;;;0.85;79.17
25855;BME280;13680;49.936;11.344;2024-01-30T07:46:53;98123.03;;;0.84;78.71
25855;BME280;13680;49.936;11.344;2024-01-30T07:49:18;98114.28;;;0.90;78.87
25855;BME280;13680;49.936;11.344;2024-01-30T07:51:43;98113.91;;;1.00;79.41
25855;BME280;13680;49.936;11.344;2024-01-30T07:54:10;98118.38;;;1.13;78.29
25855;BME280;13680;49.936;11.344;2024-01-30T07:56:35;98123.06;;;1.04;78.98
25855;BME280;13680;49.936;11.344;2024-01-30T07:59:00;98116.34;;;1.22;79.21
25855;BME280;13680;49.936;11.344;2024-01-30T08:01:26;98126.31;;;1.26;78.69
25855;BME280;13680;49.936;11.344;2024-01-30T08:03:51;98128.13;;;1.33;78.68
25855;BME280;13680;49.936;11.344;2024-01-30T08:06:16;98124.69;;;1.45;78.80
25855;BME280;13680;49.936;11.344;2024-01-30T08:08:42;98123.44;;;1.55;78.77
25855;BME280;13680;49.936;11.344;2024-01-30T08:11:07;98126.28;;;1.60;78.56
25855;BME280;13680;49.936;11.344;2024-01-30T08:13:33;98125.44;;;1.66;79.27
25855;BME280;13680;49.936;11.344;2024-01-30T08:15:58;98121.50;;;1.82;79.26
25855;BME280;13680;49.936;11.344;2024-01-30T08:18:23;98129.66;;;1.87;78.72
25855;BME280;13680;49.936;11.344;2024-01-30T08:20:49;98122.72;;;1.93;79.19
25855;BME280;13680;49.936;11.344;2024-01-30T08:23:14;98134.91;;;2.07;79.48
25855;BME280;13680;49.936;11.344;2024-01-30T08:25:39;98136.66;;;2.27;79.03
25855;BME280;13680;49.936;11.344;2024-01-30T08:28:05;98134.56;;;2.42;78.52
25855;BME280;13680;49.936;11.344;2024-01-30T08:30:30;98134.91;;;2.46;78.87
25855;BME280;13680;49.936;11.344;2024-01-30T08:32:55;98130.00;;;2.50;78.93
25855;BME280;13680;49.936;11.344;2024-01-30T08:35:21;98126.44;;;2.69;78.26
25855;BME280;13680;49.936;11.344;2024-01-30T08:37:46;98139.44;;;2.77;78.46
25855;BME280;13680;49.936;11.344;2024-01-30T08:40:11;98126.66;;;2.93;78.21
25855;BME280;13680;49.936;11.344;2024-01-30T08:42:37;98124.69;;;2.82;77.93
25855;BME280;13680;49.936;11.344;2024-01-30T08:45:02;98128.25;;;3.01;77.83
25855;BME280;13680;49.936;11.344;2024-01-30T08:47:30;98124.25;;;3.17;77.84
25855;BME280;13680;49.936;11.344;2024-01-30T08:49:55;98130.91;;;3.26;78.33
25855;BME280;13680;49.936;11.344;2024-01-30T08:52:20;98128.28;;;3.44;77.55
25855;BME280;13680;49.936;11.344;2024-01-30T08:54:46;98127.19;;;3.52;77.42
25855;BME280;13680;49.936;11.344;2024-01-30T08:57:11;98127.50;;;3.63;77.31
25855;BME280;13680;49.936;11.344;2024-01-30T08:59:36;98132.91;;;3.74;76.99
25855;BME280;13680;49.936;11.344;2024-01-30T09:02:01;98120.50;;;3.87;77.37
25855;BME280;13680;49.936;11.344;2024-01-30T09:04:27;98124.47;;;3.96;76.84
25855;BME280;13680;49.936;11.344;2024-01-30T09:06:53;98125.22;;;4.03;76.85
25855;BME280;13680;49.936;11.344;2024-01-30T09:09:18;98121.44;;;4.11;76.79
25855;BME280;13680;49.936;11.344;2024-01-30T09:11:44;98133.09;;;4.29;76.14
25855;BME280;13680;49.936;11.344;2024-01-30T09:14:09;98133.91;;;4.29;76.27
25855;BME280;13680;49.936;11.344;2024-01-30T09:16:35;98125.88;;;4.48;76.72
25855;BME280;13680;49.936;11.344;2024-01-30T09:19:00;98128.53;;;4.78;76.16
25855;BME280;13680;49.936;11.344;2024-01-30T09:21:26;98129.03;;;4.99;74.79
25855;BME280;13680;49.936;11.344;2024-01-30T09:23:54;98135.56;;;5.15;73.85
25855;BME280;13680;49.936;11.344;2024-01-30T09:26:19;98132.09;;;5.38;73.39
25855;BME280;13680;49.936;11.344;2024-01-30T09:28:44;98140.56;;;5.58;70.22
25855;BME280;13680;49.936;11.344;2024-01-30T09:31:11;98146.38;;;5.67;69.18
25855;BME280;13680;49.936;11.344;2024-01-30T09:33:36;98135.34;;;5.76;68.22
25855;BME280;13680;49.936;11.344;2024-01-30T09:36:02;98138.59;;;5.66;67.70
25855;BME280;13680;49.936;11.344;2024-01-30T09:38:27;98131.66;;;5.77;67.16
25855;BME280;13680;49.936;11.344;2024-01-30T09:40:54;98135.13;;;5.65;66.52
25855;BME280;13680;49.936;11.344;2024-01-30T09:43:23;98144.06;;;5.71;66.02
25855;BME280;13680;49.936;11.344;2024-01-30T09:45:50;98139.88;;;5.63;66.93
25855;BME280;13680;49.936;11.344;2024-01-30T09:48:15;98136.28;;;5.69;66.60
25855;BME280;13680;49.936;11.344;2024-01-30T09:50:41;98142.78;;;5.73;67.03
25855;BME280;13680;49.936;11.344;2024-01-30T09:53:08;98140.22;;;5.79;67.58
25855;BME280;13680;49.936;11.344;2024-01-30T09:55:35;98141.25;;;5.89;67.09
25855;BME280;13680;49.936;11.344;2024-01-30T09:58:00;98137.56;;;6.02;66.43
25855;BME280;13680;49.936;11.344;2024-01-30T10:00:26;98134.25;;;6.12;65.87
25855;BME280;13680;49.936;11.344;2024-01-30T10:02:52;98124.75;;;6.16;64.84
25855;BME280;13680;49.936;11.344;2024-01-30T10:05:19;98125.78;;;6.15;64.44
25855;BME280;13680;49.936;11.344;2024-01-30T10:07:53;98119.38;;;6.28;64.74
25855;BME280;13680;49.936;11.344;2024-01-30T10:10:23;98120.25;;;6.34;64.29
25855;BME280;13680;49.936;11.344;2024-01-30T10:12:49;98118.88;;;6.31;64.06
25855;BME280;13680;49.936;11.344;2024-01-30T10:15:14;98118.31;;;6.29;63.98
25855;BME280;13680;49.936;11.344;2024-01-30T10:17:40;98117.47;;;6.41;63.33
25855;BME280;13680;49.936;11.344;2024-01-30T10:20:05;98118.69;;;6.50;63.36
25855;BME280;13680;49.936;11.344;2024-01-30T10:22:31;98118.13;;;6.48;63.70
25855;BME280;13680;49.936;11.344;2024-01-30T10:24:57;98117.41;;;6.52;63.71
25855;BME280;13680;49.936;11.344;2024-01-30T10:27:26;98112.25;;;6.63;64.24
25855;BME280;13680;49.936;11.344;2024-01-30T10:29:52;98120.34;;;6.68;63.61
25855;BME280;13680;49.936;11.344;2024-01-30T10:32:17;98109.03;;;6.78;62.60
25855;BME280;13680;49.936;11.344;2024-01-30T10:34:43;98116.97;;;6.72;63.58
25855;BME280;13680;49.936;11.344;2024-01-30T10:37:09;98106.28;;;6.72;63.50
25855;BME280;13680;49.936;11.344;2024-01-30T10:39:41;98115.53;;;6.82;63.83
25855;BME280;13680;49.936;11.344;2024-01-30T10:42:15;98107.75;;;6.97;63.00
25855;BME280;13680;49.936;11.344;2024-01-30T10:45:09;98110.94;;;6.94;63.50
25855;BME280;13680;49.936;11.344;2024-01-30T10:47:36;98106.47;;;6.83;63.39
25855;BME280;13680;49.936;11.344;2024-01-30T10:50:02;98108.88;;;7.01;63.35
25855;BME280;13680;49.936;11.344;2024-01-30T10:52:29;98100.94;;;7.07;63.99
25855;BME280;13680;49.936;11.344;2024-01-30T10:54:55;98113.44;;;7.18;63.79
25855;BME280;13680;49.936;11.344;2024-01-30T10:57:25;98101.38;;;7.32;63.53
25855;BME280;13680;49.936;11.344;2024-01-30T10:59:53;98106.13;;;7.30;63.04
25855;BME280;13680;49.936;11.344;2024-01-30T11:02:20;98109.38;;;7.49;62.46
25855;BME280;13680;49.936;11.344;2024-01-30T11:04:48;98110.81;;;7.57;61.42
25855;BME280;13680;49.936;11.344;2024-01-30T11:07:17;98112.25;;;7.65;60.77
25855;BME280;13680;49.936;11.344;2024-01-30T11:09:52;98113.69;;;7.73;61.06
25855;BME280;13680;49.936;11.344;2024-01-30T11:12:24;98107.34;;;7.79;61.06
25855;BME280;13680;49.936;11.344;2024-01-30T11:17:28;98104.50;;;7.85;60.33
25855;BME280;13680;49.936;11.344;2024-01-30T11:19:53;98100.56;;;7.93;61.34
25855;BME280;13680;49.936;11.344;2024-01-30T11:22:20;98095.91;;;8.06;60.87
25855;BME280;13680;49.936;11.344;2024-01-30T11:24:46;98091.59;;;8.05;61.43
25855;BME280;13680;49.936;11.344;2024-01-30T11:27:12;98095.00;;;7.95;59.68
25855;BME280;13680;49.936;11.344;2024-01-30T11:29:39;98093.84;;;8.13;60.05
25855;BME280;13680;49.936;11.344;2024-01-30T11:32:05;98092.00;;;7.91;60.95
25855;BME280;13680;49.936;11.344;2024-01-30T11:34:32;98083.13;;;8.13;60.43
25855;BME280;13680;49.936;11.344;2024-01-30T11:37:03;98082.19;;;8.46;59.94
25855;BME280;13680;49.936;11.344;2024-01-30T11:39:31;98095.28;;;8.70;59.89
25855;BME280;13680;49.936;11.344;2024-01-30T11:41:58;98088.78;;;8.66;58.66
25855;BME280;13680;49.936;11.344;2024-01-30T11:44:24;98079.47;;;8.74;58.12
25855;BME280;13680;49.936;11.344;2024-01-30T11:46:51;98084.47;;;8.92;57.23
25855;BME280;13680;49.936;11.344;2024-01-30T11:49:17;98077.03;;;8.99;57.19
25855;BME280;13680;49.936;11.344;2024-01-30T11:51:44;98069.88;;;9.10;57.52
25855;BME280;13680;49.936;11.344;2024-01-30T11:54:10;98069.13;;;9.20;57.23
25855;BME280;13680;49.936;11.344;2024-01-30T11:56:36;98068.94;;;8.94;57.25
25855;BME280;13680;49.936;11.344;2024-01-30T11:59:02;98072.94;;;8.92;57.64
25855;BME280;13680;49.936;11.344;2024-01-30T12:01:27;98071.88;;;8.93;57.99
25855;BME280;13680;49.936;11.344;2024-01-30T12:03:52;98065.41;;;8.89;58.48
25855;BME280;13680;49.936;11.344;2024-01-30T12:06:18;98068.91;;;8.89;57.95
25855;BME280;13680;49.936;11.344;2024-01-30T12:08:58;98062.81;;;8.66;58.45
25855;BME280;13680;49.936;11.344;2024-01-30T12:11:24;98074.31;;;8.94;58.13
25855;BME280;13680;49.936;11.344;2024-01-30T12:13:51;98058.19;;;8.89;58.68
25855;BME280;13680;49.936;11.344;2024-01-30T12:16:16;98062.72;;;8.89;58.36
25855;BME280;13680;49.936;11.344;2024-01-30T12:18:42;98052.38;;;9.03;57.58
25855;BME280;13680;49.936;11.344;2024-01-30T12:21:07;98058.53;;;9.03;57.28
25855;BME280;13680;49.936;11.344;2024-01-30T12:23:35;98047.84;;;9.08;56.92
25855;BME280;13680;49.936;11.344;2024-01-30T12:26:01;98048.06;;;9.01;56.90
25855;BME280;13680;49.936;11.344;2024-01-30T12:28:27;98040.41;;;9.21;56.29
25855;BME280;13680;49.936;11.344;2024-01-30T12:30:56;98034.84;;;9.32;57.59
25855;BME280;13680;49.936;11.344;2024-01-30T12:33:26;98034.19;;;9.10;57.56
25855;BME280;13680;49.936;11.344;2024-01-30T12:35:52;98016.31;;;9.31;57.62
25855;BME280;13680;49.936;11.344;2024-01-30T12:38:17;98027.06;;;9.36;56.32
25855;BME280;13680;49.936;11.344;2024-01-30T12:40:43;98012.22;;;9.66;56.01
25855;BME280;13680;49.936;11.344;2024-01-30T12:43:08;98013.63;;;9.84;55.43
25855;BME280;13680;49.936;11.344;2024-01-30T12:45:33;98013.63;;;9.84;55.14
25855;BME280;13680;49.936;11.344;2024-01-30T12:47:59;98012.06;;;10.09;55.69
25855;BME280;13680;49.936;11.344;2024-01-30T12:50:24;98003.53;;;10.27;55.78